createdAt,value
2022-09-10T00:01:20.583Z,71.19
2022-09-10T00:03:49.864Z,71.88
2022-09-10T00:06:18.566Z,71.98
2022-09-10T00:08:47.034Z,72.38
2022-09-10T00:11:15.611Z,71.78
2022-09-10T00:13:43.735Z,71.35
2022-09-10T00:16:15.309Z,70.37
2022-09-10T00:18:43.345Z,71.14
2022-09-10T00:21:13.061Z,71.28
2022-09-10T00:23:41.649Z,71.58
2022-09-10T00:26:15.052Z,72.45
2022-09-10T00:28:43.635Z,72.09
2022-09-10T00:31:13.260Z,71.83
2022-09-10T00:33:41.685Z,71.33
2022-09-10T00:36:16.364Z,71.20
2022-09-10T00:38:43.936Z,70.81
2022-09-10T00:41:12.518Z,71.22
2022-09-10T00:43:49.776Z,71.06
2022-09-10T00:46:27.885Z,71.35
2022-09-10T00:48:58.109Z,72.26
2022-09-10T00:51:27.571Z,71.59
2022-09-10T00:53:55.357Z,71.73
2022-09-10T00:56:22.973Z,71.72
2022-09-10T00:58:51.014Z,71.33
2022-09-10T01:01:20.344Z,70.63
2022-09-10T01:03:49.937Z,69.78
2022-09-10T01:06:18.323Z,70.26
2022-09-10T01:08:45.935Z,70.70
2022-09-10T01:11:38.621Z,70.62
2022-09-10T01:14:25.256Z,70.36
2022-09-10T01:17:03.341Z,69.97
2022-09-10T01:20:03.554Z,70.81
2022-09-10T01:22:44.733Z,70.99
2022-09-10T01:25:23.571Z,70.75
2022-09-10T01:27:55.145Z,70.21
2022-09-10T01:30:25.065Z,70.37
2022-09-10T01:33:01.003Z,70.21
2022-09-10T01:35:36.923Z,70.46
2022-09-10T01:38:09.833Z,70.34
2022-09-10T01:40:38.337Z,70.13
2022-09-10T01:43:08.702Z,70.51
2022-09-10T01:45:43.293Z,69.52
2022-09-10T01:48:25.653Z,69.66
2022-09-10T01:51:04.434Z,70.53
2022-09-10T01:54:00.116Z,68.96
2022-09-10T01:56:37.876Z,70.16
2022-09-10T01:59:22.374Z,71.14
2022-09-10T02:01:56.041Z,71.53
2022-09-10T02:04:24.773Z,71.73
2022-09-10T02:06:52.794Z,71.11
2022-09-10T02:09:20.921Z,71.09
2022-09-10T02:11:50.902Z,70.98
2022-09-10T02:14:21.815Z,71.63
2022-09-10T02:16:54.572Z,72.02
2022-09-10T02:19:22.281Z,71.73
2022-09-10T02:21:50.306Z,71.92
2022-09-10T02:24:17.902Z,70.75
2022-09-10T02:26:46.546Z,71.16
2022-09-10T02:29:15.802Z,71.83
2022-09-10T02:31:44.813Z,71.59
2022-09-10T02:34:12.434Z,71.51
2022-09-10T02:36:40.367Z,71.34
2022-09-10T02:39:08.049Z,72.05
2022-09-10T02:41:35.713Z,71.46
2022-09-10T02:44:04.428Z,71.75
2022-09-10T02:46:32.727Z,71.54
2022-09-10T02:49:01.604Z,71.90
2022-09-10T02:51:29.095Z,72.57
2022-09-10T02:53:56.634Z,71.72
2022-09-10T02:56:24.547Z,71.80
2022-09-10T02:58:52.252Z,70.64
2022-09-10T03:01:22.491Z,71.16
2022-09-10T03:03:51.113Z,72.20
2022-09-10T03:06:21.071Z,71.52
2022-09-10T03:08:49.303Z,71.47
2022-09-10T03:11:17.694Z,71.65
2022-09-10T03:13:46.281Z,71.59
2022-09-10T03:16:14.118Z,72.93
2022-09-10T03:18:41.956Z,72.99
2022-09-10T03:21:13.011Z,72.96
2022-09-10T03:23:42.433Z,73.03
2022-09-10T03:26:10.582Z,72.63
2022-09-10T03:28:38.955Z,72.60
2022-09-10T03:31:06.778Z,73.35
2022-09-10T03:33:35.228Z,72.75
2022-09-10T03:36:03.586Z,72.82
2022-09-10T03:38:31.173Z,72.89
2022-09-10T03:41:01.978Z,72.96
2022-09-10T03:43:30.840Z,73.07
2022-09-10T03:45:58.541Z,73.26
2022-09-10T03:48:26.126Z,73.75
2022-09-10T03:50:55.564Z,74.00
2022-09-10T03:53:23.917Z,72.93
2022-09-10T03:55:52.092Z,73.62
2022-09-10T03:58:20.974Z,73.76
2022-09-10T04:00:48.694Z,73.72
2022-09-10T04:03:16.263Z,73.02
2022-09-10T04:05:44.463Z,72.64
2022-09-10T04:08:12.578Z,72.97
2022-09-10T04:10:40.417Z,73.75
2022-09-10T04:13:08.245Z,73.33
2022-09-10T04:15:38.151Z,72.70
2022-09-10T04:18:06.671Z,73.49
2022-09-10T04:20:34.781Z,73.32
2022-09-10T04:23:02.905Z,72.65
2022-09-10T04:25:30.574Z,73.61
2022-09-10T04:27:58.135Z,72.79
2022-09-10T04:30:26.119Z,73.71
2022-09-10T04:32:54.997Z,72.96
2022-09-10T04:35:22.474Z,73.90
2022-09-10T04:37:50.112Z,73.20
2022-09-10T04:40:17.715Z,73.46
2022-09-10T04:42:45.260Z,73.12
2022-09-10T04:45:12.797Z,73.27
2022-09-10T04:47:40.668Z,73.80
2022-09-10T04:50:11.204Z,74.74
2022-09-10T04:52:38.766Z,74.80
2022-09-10T04:55:07.858Z,74.15
2022-09-10T04:57:35.951Z,73.87
2022-09-10T05:00:04.640Z,74.05
2022-09-10T05:02:32.268Z,74.23
2022-09-10T05:04:59.873Z,72.26
2022-09-10T05:07:28.822Z,72.39
2022-09-10T05:09:56.629Z,71.73
2022-09-10T05:12:24.189Z,72.21
2022-09-10T05:14:51.695Z,72.34
2022-09-10T05:17:20.058Z,73.54
2022-09-10T05:19:47.512Z,73.68
2022-09-10T05:22:15.051Z,73.65
2022-09-10T05:24:44.046Z,73.45
2022-09-10T05:27:11.610Z,74.81
2022-09-10T05:29:39.116Z,74.22
2022-09-10T05:32:09.330Z,74.42
2022-09-10T05:34:39.349Z,75.07
2022-09-10T05:37:08.602Z,75.66
2022-09-10T05:39:36.187Z,77.04
2022-09-10T05:42:05.682Z,76.51
2022-09-10T05:44:33.154Z,76.25
2022-09-10T05:47:01.246Z,77.19
2022-09-10T05:49:30.246Z,75.93
2022-09-10T05:51:57.994Z,76.39
2022-09-10T05:54:25.536Z,74.98
2022-09-10T05:56:54.022Z,75.57
2022-09-10T05:59:22.946Z,75.15
2022-09-10T06:01:51.301Z,74.39
2022-09-10T06:04:19.684Z,73.58
2022-09-10T06:06:47.733Z,74.68
2022-09-10T06:09:15.437Z,75.44
2022-09-10T06:11:43.272Z,75.00
2022-09-10T06:14:10.780Z,74.79
2022-09-10T06:16:39.628Z,74.64
2022-09-10T06:19:08.109Z,75.23
2022-09-10T06:21:35.748Z,74.90
2022-09-10T06:24:03.658Z,75.00
2022-09-10T06:26:31.169Z,74.81
2022-09-10T06:28:58.652Z,75.20
2022-09-10T06:31:27.542Z,74.01
2022-09-10T06:33:56.389Z,74.88
2022-09-10T06:36:23.924Z,75.14
2022-09-10T06:38:51.444Z,74.84
2022-09-10T06:41:19.375Z,76.23
2022-09-10T06:43:46.855Z,76.16
2022-09-10T06:46:41.119Z,75.05
2022-09-10T06:49:06.376Z,74.99
2022-09-10T06:51:34.165Z,75.04
2022-09-10T06:54:02.674Z,75.24
2022-09-10T06:56:30.589Z,75.43
2022-09-10T06:59:01.631Z,75.82
2022-09-10T07:01:30.131Z,75.58
2022-09-10T07:03:59.629Z,74.56
2022-09-10T07:06:33.554Z,74.07
2022-09-10T07:09:01.096Z,75.46
2022-09-10T07:11:30.373Z,75.84
2022-09-10T07:13:57.859Z,75.71
2022-09-10T07:16:27.531Z,75.50
2022-09-10T07:18:57.156Z,74.92
2022-09-10T07:21:27.321Z,74.22
2022-09-10T07:24:01.081Z,74.66
2022-09-10T07:26:29.228Z,74.92
2022-09-10T07:28:57.362Z,74.33
2022-09-10T07:31:27.936Z,74.15
2022-09-10T07:33:57.514Z,74.21
2022-09-10T07:36:25.861Z,74.69
2022-09-10T07:38:54.666Z,74.27
2022-09-10T07:41:23.505Z,74.08
2022-09-10T07:43:54.737Z,73.63
2022-09-10T07:46:25.366Z,73.73
2022-09-10T07:48:54.911Z,74.08
2022-09-10T07:51:22.425Z,74.58
2022-09-10T07:53:53.899Z,74.42
2022-09-10T07:56:24.042Z,74.00
2022-09-10T07:58:52.632Z,74.94
2022-09-10T08:01:20.633Z,75.07
2022-09-10T08:03:48.205Z,75.01
2022-09-10T08:06:16.258Z,74.89
2022-09-10T08:08:43.943Z,74.08
2022-09-10T08:11:13.142Z,74.68
2022-09-10T08:13:44.984Z,75.13
2022-09-10T08:16:15.200Z,74.99
2022-09-10T08:18:43.689Z,74.21
2022-09-10T08:21:11.591Z,74.38
2022-09-10T08:23:40.326Z,74.36
2022-09-10T08:26:09.079Z,74.69
2022-09-10T08:28:37.564Z,73.65
2022-09-10T08:31:08.465Z,74.35
2022-09-10T08:33:36.914Z,73.46
2022-09-10T08:36:06.616Z,73.39
2022-09-10T08:38:36.694Z,73.97
2022-09-10T08:41:12.103Z,73.51
2022-09-10T08:43:49.774Z,73.46
2022-09-10T08:46:24.867Z,74.16
2022-09-10T08:49:00.925Z,73.76
2022-09-10T08:51:30.967Z,73.23
2022-09-10T08:54:02.622Z,74.20
2022-09-10T08:56:31.143Z,74.04
2022-09-10T08:59:03.882Z,73.74
2022-09-10T09:01:36.669Z,74.37
2022-09-10T09:04:10.573Z,73.87
2022-09-10T09:06:43.515Z,72.91
2022-09-10T09:09:15.796Z,73.74
2022-09-10T09:11:53.082Z,72.93
2022-09-10T09:14:37.940Z,72.02
2022-09-10T09:17:27.780Z,73.12
2022-09-10T09:20:05.917Z,72.72
2022-09-10T09:22:41.692Z,71.30
2022-09-10T09:25:14.444Z,70.75
2022-09-10T09:27:42.600Z,70.48
2022-09-10T09:30:19.378Z,70.56
2022-09-10T09:32:48.566Z,71.05
2022-09-10T09:35:30.472Z,71.06
2022-09-10T09:38:20.163Z,71.29
2022-09-10T09:40:50.218Z,72.02
2022-09-10T09:43:31.887Z,71.80
2022-09-10T09:46:00.055Z,70.94
2022-09-10T09:48:36.175Z,70.74
2022-09-10T09:51:04.862Z,70.98
2022-09-10T09:53:32.422Z,70.48
2022-09-10T09:56:02.175Z,70.51
2022-09-10T09:58:33.615Z,70.26
2022-09-10T10:01:23.803Z,70.71
2022-09-10T10:03:58.513Z,69.97
2022-09-10T10:06:29.436Z,68.98
2022-09-10T10:09:00.994Z,69.93
2022-09-10T10:11:51.213Z,71.05
2022-09-10T10:14:38.135Z,71.78
2022-09-10T10:17:34.293Z,73.88
2022-09-10T10:20:10.887Z,72.96
2022-09-10T10:22:39.371Z,72.82
2022-09-10T10:25:27.445Z,74.19
2022-09-10T10:27:55.212Z,74.77
2022-09-10T10:30:25.014Z,74.01
2022-09-10T10:32:55.907Z,73.84
2022-09-10T10:35:44.181Z,73.77
2022-09-10T10:38:28.318Z,74.16
2022-09-10T10:41:32.229Z,73.80
2022-09-10T10:44:24.738Z,74.65
2022-09-10T10:47:04.820Z,76.10
2022-09-10T10:49:47.148Z,76.08
2022-09-10T10:52:25.181Z,76.32
2022-09-10T10:55:06.934Z,76.62
2022-09-10T10:57:50.050Z,76.70
2022-09-10T11:00:20.080Z,76.86
2022-09-10T11:02:54.331Z,77.11
2022-09-10T11:05:27.770Z,75.88
2022-09-10T11:07:57.335Z,75.73
2022-09-10T11:10:29.975Z,75.23
2022-09-10T11:13:08.883Z,75.01
2022-09-10T11:15:43.072Z,75.56
2022-09-10T11:18:18.169Z,76.80
2022-09-10T11:20:47.452Z,75.78
2022-09-10T11:23:26.689Z,75.30
2022-09-10T11:26:00.462Z,75.83
2022-09-10T11:28:32.192Z,75.88
2022-09-10T11:31:05.527Z,76.91
2022-09-10T11:33:39.915Z,76.34
2022-09-10T11:36:13.368Z,77.03
2022-09-10T11:38:52.872Z,76.00
2022-09-10T11:41:23.723Z,74.84
2022-09-10T11:43:58.142Z,74.33
2022-09-10T11:46:32.114Z,74.67
2022-09-10T11:49:03.659Z,73.90
2022-09-10T11:51:34.082Z,73.57
2022-09-10T11:54:06.856Z,73.13
2022-09-10T11:56:52.765Z,74.41
2022-09-10T11:59:47.548Z,73.64
2022-09-10T12:02:57.459Z,74.32
2022-09-10T12:05:29.229Z,73.31
2022-09-10T12:08:08.918Z,72.53
2022-09-10T12:10:53.170Z,72.60
2022-09-10T12:13:20.766Z,72.53
2022-09-10T12:15:55.980Z,71.50
2022-09-10T12:18:27.932Z,71.69
2022-09-10T12:20:59.310Z,70.84
2022-09-10T12:23:30.927Z,72.07
2022-09-10T12:26:02.030Z,71.68
2022-09-10T12:29:01.584Z,71.34
2022-09-10T12:31:29.395Z,71.83
2022-09-10T12:34:19.592Z,71.89
2022-09-10T12:37:24.094Z,71.43
2022-09-10T12:40:24.841Z,71.68
2022-09-10T12:42:58.888Z,71.53
2022-09-10T12:46:00.483Z,71.11
2022-09-10T12:48:29.788Z,71.39
2022-09-10T12:51:00.484Z,72.22
2022-09-10T12:54:07.645Z,72.05
2022-09-10T12:57:01.077Z,71.84
2022-09-10T13:00:02.853Z,72.79
2022-09-10T13:02:33.868Z,74.02
2022-09-10T13:05:06.127Z,73.25
2022-09-10T13:07:40.171Z,74.96
2022-09-10T13:10:21.873Z,75.11
2022-09-10T13:12:52.926Z,75.16
2022-09-10T13:15:25.596Z,74.47
2022-09-10T13:18:24.258Z,74.46
2022-09-10T13:20:51.968Z,74.67
2022-09-10T13:23:24.653Z,74.55
2022-09-10T13:25:54.143Z,74.10
2022-09-10T13:29:00.662Z,73.71
2022-09-10T13:31:32.401Z,74.80
2022-09-10T13:34:20.041Z,73.70
2022-09-10T13:37:06.263Z,73.51
2022-09-10T13:39:57.159Z,73.90
2022-09-10T13:42:41.572Z,73.81
2022-09-10T13:45:21.738Z,74.28
2022-09-10T13:48:00.920Z,74.70
2022-09-10T13:50:35.523Z,75.12
2022-09-10T13:53:08.174Z,73.38
2022-09-10T13:55:36.973Z,73.64
2022-09-10T13:58:09.678Z,73.65
2022-09-10T14:00:42.416Z,73.95
2022-09-10T14:03:21.898Z,73.79
2022-09-10T14:05:52.827Z,74.64
2022-09-10T14:08:24.452Z,74.42
2022-09-10T14:10:57.971Z,74.71
2022-09-10T14:13:30.787Z,75.55
2022-09-10T14:16:00.977Z,75.20
2022-09-10T14:18:37.290Z,74.57
2022-09-10T14:21:05.554Z,74.46
2022-09-10T14:23:33.617Z,74.59
2022-09-10T14:26:23.106Z,75.22
2022-09-10T14:28:53.279Z,76.00
2022-09-10T14:31:33.312Z,75.59
2022-09-10T14:34:26.770Z,74.68
2022-09-10T14:36:54.328Z,74.34
2022-09-10T14:39:23.552Z,74.10
2022-09-10T14:42:10.323Z,74.23
2022-09-10T14:44:41.142Z,74.29
2022-09-10T14:47:15.761Z,75.11
2022-09-10T14:49:47.055Z,74.96
2022-09-10T14:52:15.526Z,75.78
2022-09-10T14:54:43.025Z,74.90
2022-09-10T14:57:14.717Z,74.71
2022-09-10T14:59:44.404Z,75.40
2022-09-10T15:02:16.846Z,74.64
2022-09-10T15:04:45.801Z,74.50
2022-09-10T15:07:13.831Z,73.72
2022-09-10T15:09:41.674Z,73.92
2022-09-10T15:12:14.901Z,74.45
2022-09-10T15:14:42.384Z,75.02
2022-09-10T15:17:14.005Z,74.69
2022-09-10T15:19:41.563Z,74.69
2022-09-10T15:22:20.612Z,74.58
2022-09-10T15:25:08.503Z,74.43
2022-09-10T15:27:35.575Z,75.38
2022-09-10T15:30:03.210Z,74.66
2022-09-10T15:32:30.784Z,75.59
2022-09-10T15:34:58.929Z,75.56
2022-09-10T15:37:28.011Z,75.00
2022-09-10T15:39:58.293Z,74.77
2022-09-10T15:42:25.912Z,74.53
2022-09-10T15:44:53.394Z,73.97
2022-09-10T15:47:20.922Z,74.10
2022-09-10T15:49:48.423Z,73.85
2022-09-10T15:52:15.964Z,73.59
2022-09-10T15:54:44.842Z,73.20
2022-09-10T15:57:12.426Z,73.12
2022-09-10T15:59:40.486Z,73.48
2022-09-10T16:02:13.014Z,73.33
2022-09-10T16:04:43.081Z,73.30
2022-09-10T16:07:11.290Z,73.16
2022-09-10T16:09:38.813Z,72.81
2022-09-10T16:12:08.080Z,72.83
2022-09-10T16:14:35.842Z,72.99
2022-09-10T16:17:10.199Z,73.29
2022-09-10T16:19:37.939Z,73.33
2022-09-10T16:22:05.741Z,73.11
2022-09-10T16:24:33.330Z,73.19
2022-09-10T16:27:01.062Z,72.92
2022-09-10T16:29:29.915Z,73.14
2022-09-10T16:31:57.470Z,72.78
2022-09-10T16:34:24.984Z,71.81
2022-09-10T16:36:53.012Z,71.28
2022-09-10T16:39:21.969Z,70.48
2022-09-10T16:41:50.756Z,71.60
2022-09-10T16:44:19.901Z,71.32
2022-09-10T16:46:49.489Z,71.01
2022-09-10T16:49:19.743Z,70.82
2022-09-10T16:51:48.914Z,71.17
2022-09-10T16:54:20.731Z,71.50
2022-09-10T16:56:50.177Z,71.46
2022-09-10T16:59:20.205Z,71.70
2022-09-10T17:01:50.113Z,71.47
2022-09-10T17:04:21.479Z,71.81
2022-09-10T17:06:51.801Z,72.41
2022-09-10T17:09:19.296Z,71.75
2022-09-10T17:11:47.013Z,71.92
2022-09-10T17:14:14.523Z,72.40
2022-09-10T17:16:43.472Z,72.17
2022-09-10T17:19:14.131Z,72.31
2022-09-10T17:21:44.022Z,72.82
2022-09-10T17:24:13.069Z,72.90
2022-09-10T17:26:42.314Z,72.60
2022-09-10T17:29:12.520Z,72.33
2022-09-10T17:31:40.306Z,72.60
2022-09-10T17:34:08.383Z,72.84
2022-09-10T17:36:37.267Z,72.98
2022-09-10T17:39:04.841Z,72.08
2022-09-10T17:41:32.386Z,72.30
2022-09-10T17:44:00.602Z,72.77
2022-09-10T17:46:31.012Z,72.40
2022-09-10T17:48:59.899Z,72.42
2022-09-10T17:51:29.582Z,72.69
2022-09-10T17:53:58.809Z,72.43
2022-09-10T17:56:27.549Z,72.72
2022-09-10T17:58:59.696Z,73.02
2022-09-10T18:01:29.904Z,72.55
2022-09-10T18:03:57.780Z,71.97
2022-09-10T18:06:28.772Z,72.24
2022-09-10T18:09:01.038Z,72.84
2022-09-10T18:11:31.394Z,72.96
2022-09-10T18:14:00.337Z,72.57
2022-09-10T18:16:29.368Z,72.25
2022-09-10T18:19:00.246Z,72.36
2022-09-10T18:21:29.454Z,72.37
2022-09-10T18:24:01.077Z,72.63
2022-09-10T18:26:30.725Z,72.47
2022-09-10T18:29:00.450Z,72.91
2022-09-10T18:31:29.959Z,72.30
2022-09-10T18:33:58.384Z,72.63
2022-09-10T18:36:27.004Z,72.98
2022-09-10T18:38:54.523Z,72.29
2022-09-10T18:41:25.802Z,72.70
2022-09-10T18:43:55.269Z,72.94
2022-09-10T18:46:23.768Z,72.85
2022-09-10T18:48:51.846Z,72.64
2022-09-10T18:51:21.410Z,72.49
2022-09-10T18:53:49.497Z,72.04
2022-09-10T18:56:19.097Z,72.30
2022-09-10T18:58:51.307Z,72.25
2022-09-10T19:01:19.933Z,72.47
2022-09-10T19:03:49.578Z,72.53
2022-09-10T19:06:19.313Z,72.05
2022-09-10T19:08:48.953Z,72.30
2022-09-10T19:11:18.851Z,71.65
2022-09-10T19:13:51.644Z,71.99
2022-09-10T19:16:20.266Z,71.80
2022-09-10T19:18:50.885Z,71.80
2022-09-10T19:21:20.060Z,71.81
2022-09-10T19:23:48.455Z,71.69
2022-09-10T19:26:16.992Z,71.88
2022-09-10T19:28:45.212Z,71.91
2022-09-10T19:31:16.878Z,71.73
2022-09-10T19:33:44.446Z,72.50
2022-09-10T19:36:14.314Z,72.21
2022-09-10T19:38:42.208Z,71.92
2022-09-10T19:41:12.703Z,72.04
2022-09-10T19:43:41.338Z,72.27
2022-09-10T19:46:11.003Z,71.79
2022-09-10T19:48:40.409Z,72.09
2022-09-10T19:51:10.580Z,72.18
2022-09-10T19:53:38.597Z,71.87
2022-09-10T19:56:07.242Z,71.56
2022-09-10T19:58:35.904Z,72.21
2022-09-10T20:01:08.828Z,71.94
2022-09-10T20:03:37.609Z,71.96
2022-09-10T20:06:08.110Z,72.25
2022-09-10T20:08:36.234Z,71.87
2022-09-10T20:11:05.874Z,72.83
2022-09-10T20:13:33.540Z,72.62
2022-09-10T20:16:01.508Z,72.13
2022-09-10T20:18:29.334Z,71.36
2022-09-10T20:20:57.426Z,71.99
2022-09-10T20:23:26.307Z,71.66
2022-09-10T20:25:53.827Z,71.36
2022-09-10T20:28:21.304Z,71.89
2022-09-10T20:30:49.279Z,71.75
2022-09-10T20:33:16.798Z,71.57
2022-09-10T20:35:44.753Z,71.55
2022-09-10T20:38:12.734Z,71.58
2022-09-10T20:40:43.298Z,72.07
2022-09-10T20:43:11.787Z,72.37
2022-09-10T20:45:43.473Z,72.01
2022-09-10T20:48:10.989Z,72.36
2022-09-10T20:50:38.500Z,72.09
2022-09-10T20:53:06.027Z,71.91
2022-09-10T20:55:33.848Z,72.00
2022-09-10T20:58:02.683Z,72.31
2022-09-10T21:00:30.211Z,72.36
2022-09-10T21:02:58.330Z,71.97
2022-09-10T21:05:25.876Z,72.14
2022-09-10T21:07:53.377Z,72.23
2022-09-10T21:10:20.856Z,72.64
2022-09-10T21:12:48.369Z,72.42
2022-09-10T21:15:17.393Z,72.67
2022-09-10T21:17:44.952Z,72.86
2022-09-10T21:20:13.642Z,73.03
2022-09-10T21:22:41.646Z,73.02
2022-09-10T21:25:10.933Z,73.24
2022-09-10T21:27:38.474Z,73.99
2022-09-10T21:30:07.402Z,73.65
2022-09-10T21:32:36.252Z,73.10
2022-09-10T21:35:03.754Z,72.71
2022-09-10T21:37:31.228Z,72.37
2022-09-10T21:39:58.789Z,72.63
2022-09-10T21:42:26.319Z,72.92
2022-09-10T21:44:54.505Z,72.79
2022-09-10T21:47:22.022Z,73.19
2022-09-10T21:49:50.870Z,72.64
2022-09-10T21:52:18.366Z,72.82
2022-09-10T21:54:45.869Z,72.38
2022-09-10T21:57:13.430Z,72.04
2022-09-10T21:59:41.496Z,71.53
2022-09-10T22:02:09.101Z,71.04
2022-09-10T22:04:36.691Z,71.39
2022-09-10T22:07:05.586Z,71.79
2022-09-10T22:09:33.685Z,72.09
2022-09-10T22:12:01.165Z,71.47
2022-09-10T22:14:28.676Z,71.69
2022-09-10T22:16:56.152Z,71.82
2022-09-10T22:19:25.250Z,72.10
2022-09-10T22:21:53.948Z,71.89
2022-09-10T22:24:22.853Z,72.39
2022-09-10T22:26:50.582Z,72.79
2022-09-10T22:29:20.244Z,72.82
2022-09-10T22:31:49.410Z,71.84
2022-09-10T22:34:18.451Z,72.30
2022-09-10T22:36:47.325Z,72.04
2022-09-10T22:39:16.785Z,71.51
2022-09-10T22:41:46.223Z,71.95
2022-09-10T22:44:14.344Z,72.11
2022-09-10T22:46:42.829Z,71.54
2022-09-10T22:49:10.921Z,72.20
2022-09-10T22:51:40.799Z,71.82
2022-09-10T22:54:10.625Z,71.92
2022-09-10T22:56:39.425Z,71.17
2022-09-10T22:59:13.618Z,72.26
2022-09-10T23:01:43.135Z,72.11
2022-09-10T23:04:11.019Z,71.20
2022-09-10T23:06:39.511Z,71.29
2022-09-10T23:09:08.902Z,70.82
2022-09-10T23:11:38.297Z,72.08
2022-09-10T23:14:09.466Z,72.58
2022-09-10T23:16:38.771Z,72.13
2022-09-10T23:19:08.289Z,72.85
2022-09-10T23:21:36.956Z,73.43
2022-09-10T23:24:07.285Z,72.96
2022-09-10T23:26:35.430Z,71.82
2022-09-10T23:29:04.966Z,70.99
2022-09-10T23:31:36.554Z,70.81
2022-09-10T23:34:06.443Z,70.47
2022-09-10T23:36:35.903Z,70.67
2022-09-10T23:39:06.336Z,70.76
2022-09-10T23:41:34.474Z,71.38
2022-09-10T23:44:02.483Z,71.40
2022-09-10T23:46:30.290Z,71.19
2022-09-10T23:48:59.254Z,71.90
2022-09-10T23:51:27.513Z,73.85
2022-09-10T23:53:55.901Z,74.25
2022-09-10T23:56:25.470Z,73.00
2022-09-10T23:58:53.439Z,73.48
